Grantsburg, WI

6:49 PM CST on February 12, 2016 (GMT -0600)
Neighbors of Faith | | Change Station
CLOSE
Current Station
Personal Weather Station
Location: Grantsburg, WI
Elevation: 922 ft
Nearby Weather Stations
Active Advisory: Wind Chill Advisory

Elev 922 ft 45.78 °N, 92.69 °W | Updated 6 seconds ago

Mostly Cloudy
Mostly Cloudy
1.0 °F
Feels Like 1 °F
N
2.5
Wind Variable Wind from NNW
Gusts 2.5 mph

Today
High -- | Low -- °F
--% Chance of Precip.
Yesterday
High -- | Low -- °F
Precip. -- in
Pressure 30.51 in
Visibility 10.0 miles
Clouds Clear
Windchill 1 °F
Dew Point -14 °F
Humidity 51%
Rainfall 0.00 in
Snow Depth Not available.
7:18 AM 5:32 PM
Waxing Crescent, 25% visible
METAR KRZN 130030Z AUTO 33007KT 10SM CLR M17/M27 A3051 RMK AO2 T11731267
Pressure 30.51 in
Visibility 10.0 miles
Clouds Clear
Windchill 1 °F
Dew Point -14 °F
Humidity 51%
Rainfall 0.00 in
Snow Depth Not available.
7:18 AM 5:32 PM
Waxing Crescent, 25% visible
METAR KRZN 130030Z AUTO 33007KT 10SM CLR M17/M27 A3051 RMK AO2 T11731267

10-Day Weather Forecast

Almanac

Astronomy

Feb. 12, 2016 Rise Set
Actual Time
Civil Twilight
Nautical Twilight
Astronomical Twilight
Moon
Length of Visible Light
Length of Day
Tomorrow will be .
, % of the Moon is Illuminated

Today's Extremes

State Highs State Lows

Community

WunderPhotos

Upload Photos

1,892,444 photos uploaded!

WunderBlog® & News

Nearby

Air Quality

  Air Quality AQ Index Pollutant
Not available.

Snow Depth

Station Depth Elevation

Earthquake Activity

City Distance Mag. Time & Date
Minimum magnitude displayed is 2.5.

Coastal Water Temperatures

Place Temperature

Stations

Nearby Weather Stations

Station Location Temp. Windchill Dew Point Humidity Wind Precip. Elev Updated Type
                   

Watches & Warnings

Wind Chill Advisory
Issued: 3:30 PM CST Feb. 12, 2016 – National Weather Service

... Wind Chill Advisory remains in effect from 6 PM this evening
to 9 am CST Saturday...

* locations... portions of central Minnesota... including
Brainerd... Aitkin... Pine City and Hinckley... as well as all of
northwest Wisconsin.

* Wind chill values... as low as 35 below.

* Sustained winds... northwest 10 to 15 mph... becoming 5 to 10 mph
tonight.

* Frostbite time... 20 to 30 minutes on exposed skin.

Precautionary/preparedness actions...

A Wind Chill Advisory means that very cold air and winds will
combine to generate low wind chills. This will result in frost
bite and lead to hypothermia if precautions are not taken. If you
must venture outdoors... make sure you wear a hat and gloves.



G2